createdAt,value
2023-08-22T00:00:52.000Z,6.55
2023-08-22T00:05:53.981Z,6.60
2023-08-22T00:10:58.364Z,5.93
2023-08-22T00:16:02.040Z,7.60
2023-08-22T00:21:04.026Z,6.30
2023-08-22T00:26:05.881Z,6.22
2023-08-22T00:31:07.841Z,5.85
2023-08-22T00:36:09.740Z,6.57
2023-08-22T00:41:11.566Z,7.75
2023-08-22T00:46:13.695Z,7.60
2023-08-22T00:56:17.744Z,6.15
2023-08-22T01:01:19.738Z,6.03
2023-08-22T01:06:44.404Z,6.70
2023-08-22T01:11:46.597Z,6.65
2023-08-22T01:21:51.610Z,6.23
2023-08-22T01:26:53.586Z,6.10
2023-08-22T01:32:07.990Z,6.20
2023-08-22T01:37:10.409Z,6.00
2023-08-22T01:42:12.311Z,6.18
2023-08-22T01:47:14.204Z,6.07
2023-08-22T01:52:16.160Z,6.40
2023-08-22T01:57:18.090Z,6.28
2023-08-22T02:02:20.100Z,6.85
2023-08-22T02:07:22.071Z,8.57
2023-08-22T02:12:23.982Z,7.30
2023-08-22T02:17:25.898Z,6.65
2023-08-22T02:22:27.835Z,7.32
2023-08-22T02:27:29.681Z,7.35
2023-08-22T02:32:31.622Z,8.68
2023-08-22T02:37:33.560Z,8.20
2023-08-22T02:42:35.381Z,9.65
2023-08-22T02:47:37.436Z,8.43
2023-08-22T02:57:41.212Z,8.73
2023-08-22T03:02:43.373Z,8.77
2023-08-22T03:07:45.240Z,9.35
2023-08-22T03:12:47.093Z,8.85
2023-08-22T03:17:48.996Z,8.50
2023-08-22T03:22:50.909Z,8.65
2023-08-22T03:32:54.480Z,8.43
2023-08-22T03:42:57.989Z,9.10
2023-08-22T03:47:59.901Z,9.43
2023-08-22T03:53:01.916Z,8.98
2023-08-22T03:58:03.973Z,9.23
2023-08-22T04:03:05.897Z,9.27
2023-08-22T04:08:07.798Z,9.70
2023-08-22T04:13:09.618Z,11.57
2023-08-22T04:18:11.673Z,10.95
2023-08-22T04:23:13.636Z,9.88
2023-08-22T04:28:16.522Z,9.27
2023-08-22T04:33:19.311Z,9.57
2023-08-22T04:38:21.181Z,10.65
2023-08-22T04:43:23.047Z,10.82
2023-08-22T04:48:24.881Z,9.85
2023-08-22T04:53:26.708Z,9.38
2023-08-22T04:58:28.580Z,9.32
2023-08-22T05:03:30.378Z,9.95
2023-08-22T05:08:32.272Z,9.90
2023-08-22T05:13:34.166Z,10.07
2023-08-22T05:18:37.249Z,10.35
2023-08-22T05:23:39.329Z,9.70
2023-08-22T05:28:41.226Z,8.52
2023-08-22T05:33:43.119Z,8.27
2023-08-22T05:38:45.038Z,7.25
2023-08-22T05:43:46.923Z,7.22
2023-08-22T05:48:48.939Z,6.65
2023-08-22T05:53:50.869Z,7.22
2023-08-22T05:58:52.920Z,7.05
2023-08-22T06:03:54.894Z,6.90
2023-08-22T06:08:57.294Z,7.53
2023-08-22T06:13:59.118Z,7.35
2023-08-22T06:19:04.285Z,7.10
2023-08-22T06:24:07.191Z,8.07
2023-08-22T06:29:09.105Z,8.27
2023-08-22T06:34:11.492Z,8.32
2023-08-22T06:39:13.489Z,8.40
2023-08-22T06:44:15.607Z,9.05
2023-08-22T06:49:17.723Z,8.32
2023-08-22T06:59:35.522Z,9.20
2023-08-22T07:04:37.894Z,8.50
2023-08-22T07:09:41.040Z,8.32
2023-08-22T07:14:46.099Z,8.68
2023-08-22T07:19:47.984Z,8.68
2023-08-22T07:24:50.783Z,7.95
2023-08-22T07:29:53.187Z,7.57
2023-08-22T07:34:56.836Z,7.35
2023-08-22T07:40:01.751Z,7.57
2023-08-22T07:45:05.601Z,7.25
2023-08-22T07:50:09.589Z,6.97
2023-08-22T07:55:12.239Z,6.28
2023-08-22T08:00:16.318Z,5.95
2023-08-22T08:05:19.050Z,6.82
2023-08-22T08:10:21.857Z,6.68
2023-08-22T08:15:24.865Z,7.38
2023-08-22T08:20:28.809Z,8.73
2023-08-22T08:25:34.829Z,8.32
2023-08-22T08:30:37.481Z,7.40
2023-08-22T08:35:40.010Z,7.63
2023-08-22T08:40:43.678Z,7.10
2023-08-22T08:45:47.095Z,6.60
2023-08-22T08:50:51.065Z,6.95
2023-08-22T08:55:55.253Z,6.78
2023-08-22T09:01:08.783Z,7.20
2023-08-22T09:06:11.889Z,5.50
2023-08-22T09:11:14.573Z,5.45
2023-08-22T09:16:20.125Z,4.47
2023-08-22T09:21:22.907Z,4.18
2023-08-22T09:26:26.119Z,4.43
2023-08-22T09:31:28.949Z,4.03
2023-08-22T09:36:35.634Z,3.65
2023-08-22T09:41:40.813Z,3.53
2023-08-22T09:46:43.585Z,4.30
2023-08-22T09:51:48.767Z,5.82
2023-08-22T09:56:56.789Z,4.72
2023-08-22T10:02:01.004Z,4.90
2023-08-22T10:07:03.195Z,4.88
2023-08-22T10:12:10.893Z,5.18
2023-08-22T10:27:52.443Z,5.72
2023-08-22T10:33:28.740Z,6.43
2023-08-22T10:39:01.667Z,6.20
2023-08-22T10:44:05.361Z,5.72
2023-08-22T10:54:30.688Z,6.00
2023-08-22T10:59:35.940Z,5.80
2023-08-22T11:04:40.067Z,5.13
2023-08-22T11:09:42.110Z,5.20
2023-08-22T11:14:48.328Z,5.00
2023-08-22T11:19:50.848Z,4.90
2023-08-22T11:24:53.961Z,5.13
2023-08-22T11:29:59.249Z,4.25
2023-08-22T11:35:05.717Z,4.50
2023-08-22T11:40:08.831Z,4.72
2023-08-22T11:45:17.745Z,4.15
2023-08-22T11:50:31.300Z,4.25
2023-08-22T11:55:35.143Z,4.20
2023-08-22T12:00:37.457Z,4.28
2023-08-22T12:05:46.125Z,4.15
2023-08-22T12:10:53.208Z,3.92
2023-08-22T12:16:00.181Z,3.75
2023-08-22T12:21:06.481Z,3.90
2023-08-22T12:26:08.569Z,4.00
2023-08-22T12:31:27.549Z,4.00
2023-08-22T12:36:29.484Z,3.60
2023-08-22T12:46:38.991Z,3.65
2023-08-22T12:51:42.288Z,4.07
2023-08-22T12:56:48.688Z,3.50
2023-08-22T13:01:51.870Z,5.97
2023-08-22T13:06:53.875Z,3.30
2023-08-22T13:11:55.811Z,3.45
2023-08-22T13:17:04.594Z,3.10
2023-08-22T13:22:07.288Z,3.25
2023-08-22T13:27:09.707Z,3.42
2023-08-22T13:32:12.020Z,3.55
2023-08-22T13:42:34.114Z,3.25
2023-08-22T13:47:36.713Z,3.15
2023-08-22T13:52:44.924Z,3.50
2023-08-22T13:57:47.247Z,3.03
2023-08-22T14:02:51.151Z,3.70
2023-08-22T14:07:57.292Z,3.50
2023-08-22T14:13:08.765Z,3.45
2023-08-22T14:18:13.529Z,3.75
2023-08-22T14:23:15.439Z,3.53
2023-08-22T14:28:17.340Z,3.90
2023-08-22T14:33:19.437Z,3.78
2023-08-22T14:38:21.482Z,3.53
2023-08-22T14:43:23.684Z,3.72
2023-08-22T14:48:25.663Z,3.92
2023-08-22T14:53:28.924Z,3.55
2023-08-22T14:58:44.185Z,4.40
2023-08-22T15:03:46.695Z,3.72
2023-08-22T15:08:48.659Z,3.72
2023-08-22T15:13:50.602Z,4.03
2023-08-22T15:18:52.563Z,4.03
2023-08-22T15:28:56.056Z,4.15
2023-08-22T15:33:58.701Z,4.28
2023-08-22T15:39:00.528Z,4.60
2023-08-22T15:44:03.290Z,4.63
2023-08-22T15:49:05.332Z,4.85
2023-08-22T15:59:08.904Z,4.75
2023-08-22T16:04:10.879Z,4.60
2023-08-22T16:09:12.813Z,6.03
2023-08-22T16:14:15.070Z,4.50
2023-08-22T16:19:16.921Z,5.15
2023-08-22T16:24:19.834Z,4.82
2023-08-22T16:29:21.771Z,5.30
2023-08-22T16:39:25.376Z,5.45
2023-08-22T16:49:29.016Z,8.90
2023-08-22T16:59:32.771Z,5.45
2023-08-22T17:04:34.699Z,5.85
2023-08-22T17:09:36.757Z,6.68
2023-08-22T17:19:40.310Z,6.03
2023-08-22T17:24:42.156Z,5.97
2023-08-22T17:29:44.082Z,6.43
2023-08-22T17:34:45.916Z,6.50
2023-08-22T17:39:47.846Z,5.80
2023-08-22T17:49:53.343Z,6.55
2023-08-22T17:54:55.319Z,7.03
2023-08-22T17:59:57.181Z,6.38
2023-08-22T18:04:59.188Z,6.30
2023-08-22T18:15:02.974Z,6.95
2023-08-22T18:20:06.357Z,7.25
2023-08-22T18:25:08.470Z,7.00
2023-08-22T18:35:12.343Z,8.30
2023-08-22T18:40:14.401Z,9.00
2023-08-22T18:50:18.386Z,7.50
2023-08-22T18:55:20.302Z,7.63
2023-08-22T19:00:22.230Z,9.68
2023-08-22T19:10:25.892Z,7.72
2023-08-22T19:15:27.746Z,8.20
2023-08-22T19:20:29.728Z,8.07
2023-08-22T19:25:31.775Z,7.80
2023-08-22T19:30:33.683Z,8.10
2023-08-22T19:35:39.312Z,7.43
2023-08-22T19:40:44.622Z,7.35
2023-08-22T19:45:46.589Z,7.70
2023-08-22T19:50:48.531Z,7.65
2023-08-22T19:55:50.424Z,7.28
2023-08-22T20:00:55.122Z,6.85
2023-08-22T20:06:00.614Z,7.15
2023-08-22T20:11:02.595Z,7.28
2023-08-22T20:16:04.581Z,7.18
2023-08-22T20:21:06.495Z,7.70
2023-08-22T20:26:08.354Z,7.15
2023-08-22T20:31:11.871Z,7.10
2023-08-22T20:36:13.941Z,12.38
2023-08-22T20:41:15.811Z,7.28
2023-08-22T20:46:17.694Z,6.70
2023-08-22T20:51:19.559Z,6.90
2023-08-22T20:56:21.442Z,7.18
2023-08-22T21:01:23.422Z,7.25
2023-08-22T21:06:25.379Z,6.88
2023-08-22T21:11:27.321Z,7.40
2023-08-22T21:16:30.808Z,7.32
2023-08-22T21:21:34.774Z,8.57
2023-08-22T21:26:36.627Z,7.63
2023-08-22T21:31:38.604Z,7.25
2023-08-22T21:41:42.163Z,6.47
2023-08-22T21:46:44.073Z,7.38
2023-08-22T21:51:45.973Z,6.55
2023-08-22T21:56:47.883Z,7.00
2023-08-22T22:01:49.897Z,6.47
2023-08-22T22:06:51.916Z,6.57
2023-08-22T22:11:53.772Z,6.88
2023-08-22T22:16:55.648Z,6.20
2023-08-22T22:21:57.631Z,5.95
2023-08-22T22:26:59.535Z,6.03
2023-08-22T22:32:01.413Z,6.53
2023-08-22T22:37:03.224Z,6.05
2023-08-22T22:42:05.365Z,6.30
2023-08-22T22:52:08.906Z,6.78
2023-08-22T22:57:10.758Z,6.72
2023-08-22T23:02:12.668Z,6.93
2023-08-22T23:07:14.520Z,6.43
2023-08-22T23:12:16.461Z,6.47
2023-08-22T23:17:18.629Z,6.35
2023-08-22T23:27:22.162Z,6.95
2023-08-22T23:32:29.486Z,7.05
2023-08-22T23:37:31.616Z,6.15
2023-08-22T23:42:34.973Z,6.45
2023-08-22T23:47:37.005Z,6.32
2023-08-22T23:52:39.041Z,6.40
2023-08-22T23:57:40.900Z,6.22
